Time;durP1;ratioP1;P1;durP2;ratioP2;P2;SDS_P1;SDS_P2;PMS_P1;PMS_P2;Temp;Humidity;BMP_temperature;BMP_pressure;BME280_temperature;BME280_humidity;BME280_pressure;Samples;Min_cycle;Max_cycle;Signal;HPM_P1;HPM_P2
2021/10/08 00:01:17;;;;;;;192.85;10.23;;;;;;;9.12;66.55;101243.78;10388177;28;20049;-65
2021/10/08 00:06:19;;;;;;;189.93;10.68;;;;;;;9.15;66.87;101243.69;10388858;28;20057;-64
2021/10/08 00:11:20;;;;;;;184.35;10.20;;;;;;;9.14;66.78;101244.59;10387403;28;20050;-64
2021/10/08 00:16:22;;;;;;;407.80;16.75;;;;;;;9.16;66.74;101239.31;10403105;28;20067;-64
2021/10/08 00:21:24;;;;;;;169.52;10.65;;;;;;;9.14;66.59;101239.38;10387712;28;20051;-64
2021/10/08 00:26:26;;;;;;;25.95;6.72;;;;;;;9.08;66.60;101246.53;10387471;28;20045;-64
2021/10/08 00:31:27;;;;;;;65.72;7.30;;;;;;;9.05;66.52;101244.91;10386568;28;20059;-64
2021/10/08 00:36:29;;;;;;;96.30;7.70;;;;;;;9.00;66.56;101233.75;10385745;28;20659;-64
2021/10/08 00:41:31;;;;;;;314.92;12.60;;;;;;;8.91;66.37;101241.88;10386035;28;20067;-64
2021/10/08 00:46:33;;;;;;;116.45;7.90;;;;;;;8.79;66.61;101239.66;10384253;28;20061;-64
2021/10/08 00:51:35;;;;;;;194.95;9.07;;;;;;;8.69;66.62;101239.09;10384991;28;20049;-65
2021/10/08 00:56:37;;;;;;;337.20;12.00;;;;;;;8.71;66.85;101241.63;10385129;28;20181;-64
2021/10/08 01:01:39;;;;;;;727.75;19.40;;;;;;;8.66;66.72;101244.41;10385157;28;20497;-64
2021/10/08 01:06:40;;;;;;;688.80;17.85;;;;;;;8.55;66.66;101245.63;10399536;28;20456;-64
2021/10/08 01:11:44;;;;;;;611.58;17.80;;;;;;;8.51;67.07;101238.78;10384049;28;20060;-64
2021/10/08 01:16:45;;;;;;;387.08;11.73;;;;;;;8.60;66.92;101238.53;10385240;28;20049;-65
2021/10/08 01:21:47;;;;;;;566.72;15.40;;;;;;;8.62;66.67;101247.16;10384820;28;20053;-64
2021/10/08 01:26:49;;;;;;;343.48;10.80;;;;;;;8.52;66.96;101243.13;10385254;28;20054;-64
2021/10/08 01:31:50;;;;;;;423.45;11.88;;;;;;;8.57;66.88;101243.81;10384440;28;20052;-64
2021/10/08 01:36:52;;;;;;;504.85;14.43;;;;;;;8.54;66.80;101246.53;10383190;28;20057;-64
2021/10/08 01:41:54;;;;;;;586.47;17.85;;;;;;;8.57;66.89;101246.44;10398025;28;20477;-64
2021/10/08 01:46:55;;;;;;;831.65;23.02;;;;;;;8.64;66.87;101246.22;10383958;28;20490;-64
2021/10/08 01:51:59;;;;;;;488.55;14.75;;;;;;;8.56;67.12;101252.56;10382545;28;20220;-64
2021/10/08 01:57:04;;;;;;;943.35;23.85;;;;;;;8.59;66.99;101234.19;10379591;28;20124;-65
2021/10/08 02:02:05;;;;;;;1158.53;30.38;;;;;;;8.51;67.01;101236.19;10383908;28;20052;-65
2021/10/08 02:07:07;;;;;;;547.33;16.08;;;;;;;8.36;67.24;101252.31;10406729;28;20053;-64
2021/10/08 02:12:10;;;;;;;407.45;12.38;;;;;;;8.19;67.76;101244.97;10391313;28;20057;-65
2021/10/08 02:17:11;;;;;;;539.85;15.88;;;;;;;8.42;67.42;101241.69;10391302;28;20144;-65
2021/10/08 02:22:13;;;;;;;584.42;15.05;;;;;;;8.46;66.95;101245.91;10406241;28;20091;-65
2021/10/08 02:27:15;;;;;;;809.58;20.27;;;;;;;8.39;66.72;101245.25;10390387;28;20049;-64
2021/10/08 02:32:17;;;;;;;501.40;13.50;;;;;;;8.10;67.32;101242.63;10391113;28;20479;-65
2021/10/08 02:37:18;;;;;;;341.95;10.88;;;;;;;8.19;67.51;101241.50;10389657;28;20136;-65
2021/10/08 02:42:20;;;;;;;424.88;13.00;;;;;;;8.30;67.66;101239.47;10389849;28;20049;-65
2021/10/08 02:47:22;;;;;;;274.52;9.52;;;;;;;8.44;67.23;101239.91;10390237;28;20063;-65
2021/10/08 02:52:23;;;;;;;522.22;14.02;;;;;;;8.53;66.85;101234.38;10389331;28;20052;-64
2021/10/08 02:57:39;;;;;;;359.63;10.02;;;;;;;8.50;67.01;101231.88;10387644;28;20049;-65
2021/10/08 03:02:41;;;;;;;395.77;10.60;;;;;;;8.53;66.96;101237.00;10388658;28;20125;-65
2021/10/08 03:07:42;;;;;;;452.23;12.68;;;;;;;8.53;66.62;101247.44;10385345;28;20087;-65
2021/10/08 03:12:48;;;;;;;299.35;8.77;;;;;;;8.50;66.80;101247.53;10383265;28;20312;-65
2021/10/08 03:17:50;;;;;;;218.15;7.88;;;;;;;8.41;66.90;101240.84;10382918;28;20574;-65
2021/10/08 03:22:52;;;;;;;217.25;7.88;;;;;;;8.47;66.60;101242.41;10387610;28;20431;-65
2021/10/08 03:27:53;;;;;;;493.25;12.23;;;;;;;8.39;66.46;101249.59;10389040;28;20888;-65
2021/10/08 03:32:55;;;;;;;332.73;9.75;;;;;;;8.40;66.40;101243.50;10391563;28;20088;-65
2021/10/08 03:38:12;;;;;;;224.30;8.48;;;;;;;8.34;66.46;101246.28;10389022;28;20065;-65
2021/10/08 03:43:15;;;;;;;205.60;8.95;;;;;;;8.32;66.70;101241.13;10391000;28;20056;-65
2021/10/08 03:53:33;;;;;;;392.23;11.50;;;;;;;8.35;66.33;101253.19;10390328;28;20568;-65
2021/10/08 03:58:35;;;;;;;147.43;8.00;;;;;;;8.39;66.48;101244.38;10388145;28;20512;-64
2021/10/08 04:03:36;;;;;;;213.15;9.15;;;;;;;8.39;66.51;101245.25;10390601;28;20065;-65
2021/10/08 04:08:38;;;;;;;104.78;6.55;;;;;;;8.37;66.37;101248.78;10388480;28;20060;-64
2021/10/08 04:13:40;;;;;;;311.60;9.02;;;;;;;8.30;66.17;101250.75;10389074;28;20612;-65
2021/10/08 04:18:42;;;;;;;432.58;14.50;;;;;;;8.02;66.65;101261.06;10387340;28;20080;-65
2021/10/08 04:23:44;;;;;;;401.98;11.48;;;;;;;8.01;67.00;101269.78;10388286;28;20060;-65
2021/10/08 04:28:45;;;;;;;224.48;8.95;;;;;;;8.07;67.12;101271.34;10386154;28;20059;-65
2021/10/08 04:33:47;;;;;;;367.85;11.63;;;;;;;8.12;66.72;101282.53;10387142;28;20067;-65
2021/10/08 04:38:49;;;;;;;509.75;13.52;;;;;;;7.89;66.70;101284.91;10385990;28;20057;-65
2021/10/08 04:43:50;;;;;;;462.35;12.15;;;;;;;7.75;67.02;101282.66;10384952;28;20056;-65
2021/10/08 04:48:52;;;;;;;398.13;13.27;;;;;;;7.66;67.45;101276.84;10385046;28;20139;-65
2021/10/08 04:53:54;;;;;;;163.57;8.07;;;;;;;7.81;67.42;101276.44;10387181;28;20104;-65
2021/10/08 04:58:55;;;;;;;57.05;5.18;;;;;;;7.90;67.30;101281.38;10385380;28;20048;-64
2021/10/08 05:03:57;;;;;;;118.32;6.93;;;;;;;8.09;67.04;101281.72;10400012;28;20045;-65
2021/10/08 05:08:59;;;;;;;287.63;9.88;;;;;;;8.03;66.61;101287.97;10385841;28;20088;-65
2021/10/08 05:14:00;;;;;;;334.23;10.80;;;;;;;7.76;67.17;101288.72;10385755;28;20529;-64
2021/10/08 05:19:03;;;;;;;242.80;8.85;;;;;;;7.72;67.46;101279.28;10386718;28;20053;-65
2021/10/08 05:24:05;;;;;;;580.67;18.48;;;;;;;7.81;66.89;101279.03;10384223;28;20049;-65
2021/10/08 05:29:07;;;;;;;303.38;12.50;;;;;;;7.83;67.35;101279.84;10384261;28;20042;-66
2021/10/08 05:34:11;;;;;;;290.48;11.60;;;;;;;7.91;67.04;101281.38;10384792;28;20407;-64
2021/10/08 05:39:12;;;;;;;159.57;9.27;;;;;;;7.95;67.29;101283.00;10368863;28;20228;-64
2021/10/08 05:44:14;;;;;;;367.10;12.70;;;;;;;7.96;66.96;101289.88;10379130;28;20119;-64
2021/10/08 05:49:16;;;;;;;540.92;18.13;;;;;;;7.87;66.88;101295.38;10379811;28;20064;-65
2021/10/08 05:54:17;;;;;;;629.58;21.35;;;;;;;7.63;67.14;101290.78;10384020;28;20059;-65
2021/10/08 05:59:19;;;;;;;341.35;12.32;;;;;;;7.51;67.70;101287.66;10383952;28;20049;-66
2021/10/08 06:04:21;;;;;;;293.95;11.45;;;;;;;7.80;67.55;101291.22;10383281;28;20468;-65
2021/10/08 06:09:22;;;;;;;146.20;8.50;;;;;;;7.90;67.35;101295.25;10382482;28;20052;-66
2021/10/08 06:14:24;;;;;;;342.98;12.68;;;;;;;8.01;67.21;101293.25;10373755;28;20049;-66
2021/10/08 06:19:26;;;;;;;440.63;17.25;;;;;;;8.02;67.07;101297.53;10383063;28;20750;-65
2021/10/08 06:24:27;;;;;;;445.27;16.80;;;;;;;7.98;67.04;101308.06;10383354;28;20049;-65
2021/10/08 06:29:29;;;;;;;270.70;11.55;;;;;;;8.08;67.25;101313.91;10381781;28;20045;-65
2021/10/08 06:34:31;;;;;;;252.82;11.73;;;;;;;8.23;67.24;101308.28;10382987;28;20284;-65
2021/10/08 06:39:32;;;;;;;216.23;11.00;;;;;;;8.27;67.07;101313.38;10383702;28;20129;-65
2021/10/08 06:44:36;;;;;;;167.77;11.75;;;;;;;8.44;67.11;101315.50;10381576;28;20335;-64
2021/10/08 06:49:38;;;;;;;217.57;12.10;;;;;;;8.59;66.66;101315.91;10379639;28;20049;-66
2021/10/08 06:54:40;;;;;;;311.23;14.20;;;;;;;8.79;66.18;101313.53;10380857;28;20660;-66
2021/10/08 06:59:42;;;;;;;391.20;16.15;;;;;;;8.87;65.92;101315.94;10389772;28;20050;-65
2021/10/08 07:04:44;;;;;;;277.98;13.02;;;;;;;8.89;66.16;101323.72;10388738;28;20049;-66
2021/10/08 07:09:46;;;;;;;164.00;12.00;;;;;;;9.00;65.87;101324.22;10386990;28;20318;-65
2021/10/08 07:14:47;;;;;;;477.00;19.38;;;;;;;8.94;65.58;101325.25;10386441;28;20061;-65
2021/10/08 07:19:49;;;;;;;296.40;15.68;;;;;;;8.92;65.72;101328.81;10383243;28;20063;-66
2021/10/08 07:24:51;;;;;;;134.10;9.93;;;;;;;9.15;65.63;101327.22;10386598;28;20058;-65
2021/10/08 07:29:53;;;;;;;77.68;9.27;;;;;;;9.32;65.63;101326.69;10384738;28;20049;-65
2021/10/08 07:34:55;;;;;;;88.68;9.85;;;;;;;9.44;65.41;101319.28;10387042;28;20049;-66
2021/10/08 07:39:57;;;;;;;137.73;11.07;;;;;;;9.59;65.06;101324.00;10387132;28;20052;-71
2021/10/08 07:44:58;;;;;;;165.18;11.45;;;;;;;9.72;64.81;101324.47;10388030;28;20060;-72
2021/10/08 07:50:00;;;;;;;124.60;11.25;;;;;;;9.86;64.55;101324.00;10387305;28;20544;-71
2021/10/08 07:55:04;;;;;;;508.55;19.50;;;;;;;9.86;63.72;101317.00;10385890;28;20555;-71
2021/10/08 08:00:11;;;;;;;208.85;14.20;;;;;;;9.98;64.35;101320.94;10386792;28;20498;-72
2021/10/08 08:05:13;;;;;;;140.07;14.75;;;;;;;9.94;63.91;101325.44;10379976;28;20092;-72
2021/10/08 08:10:14;;;;;;;119.20;13.40;;;;;;;9.97;63.88;101327.09;10381998;28;20060;-71
2021/10/08 08:15:18;;;;;;;104.75;14.48;;;;;;;10.22;64.00;101322.69;10401070;28;20128;-72
2021/10/08 08:20:19;;;;;;;35.38;11.90;;;;;;;10.54;63.53;101326.75;10386694;28;20123;-72
2021/10/08 08:25:21;;;;;;;118.32;13.85;;;;;;;10.58;63.19;101339.66;10387106;28;20053;-71
2021/10/08 08:30:23;;;;;;;81.90;15.55;;;;;;;10.52;63.50;101329.41;10385706;28;20054;-71
2021/10/08 08:35:25;;;;;;;38.75;11.52;;;;;;;10.38;63.30;101343.00;10386413;28;20038;-71
2021/10/08 08:40:29;;;;;;;158.35;16.73;;;;;;;10.35;62.91;101344.88;10386495;28;20160;-71
2021/10/08 08:45:32;;;;;;;38.80;17.05;;;;;;;10.26;63.25;101342.56;10384016;28;20591;-71
2021/10/08 08:50:40;;;;;;;22.75;14.05;;;;;;;10.70;63.50;101336.56;10384989;28;20402;-71
2021/10/08 08:55:42;;;;;;;22.52;12.80;;;;;;;11.13;62.68;101334.00;10384025;28;20071;-72
2021/10/08 09:00:46;;;;;;;29.38;15.98;;;;;;;11.00;61.82;101334.53;10401542;28;20132;-71
2021/10/08 09:05:47;;;;;;;26.27;17.90;;;;;;;11.21;62.61;101312.75;10385465;28;20045;-71
2021/10/08 09:10:49;;;;;;;17.00;13.43;;;;;;;11.42;61.64;101313.66;10383881;28;20041;-72
2021/10/08 09:15:56;;;;;;;21.30;14.82;;;;;;;11.97;61.25;101307.75;10384775;28;20502;-72
2021/10/08 09:21:00;;;;;;;15.73;12.10;;;;;;;12.05;61.11;101305.66;10383171;28;20220;-72
2021/10/08 09:26:04;;;;;;;18.63;13.55;;;;;;;11.91;61.51;101305.41;10380246;28;20054;-71
2021/10/08 09:31:08;;;;;;;17.20;14.02;;;;;;;12.01;60.78;101304.94;10384939;28;20052;-72
2021/10/08 09:36:16;;;;;;;17.92;13.32;;;;;;;12.19;60.67;101286.69;10385338;28;20056;-72
2021/10/08 09:41:18;;;;;;;14.55;12.25;;;;;;;12.31;60.47;101286.19;10384121;28;20098;-72
2021/10/08 09:46:21;;;;;;;15.73;12.60;;;;;;;12.14;60.76;101287.75;10383954;28;20353;-73
2021/10/08 09:51:29;;;;;;;12.68;11.27;;;;;;;12.35;60.92;101277.25;10384551;28;20325;-72
2021/10/08 09:56:41;;;;;;;15.70;11.30;;;;;;;12.86;60.35;101275.63;10382014;28;20149;-72
2021/10/08 10:01:45;;;;;;;13.38;9.45;;;;;;;13.08;59.22;101274.63;10383823;28;20309;-72
2021/10/08 10:06:50;;;;;;;14.23;9.38;;;;;;;13.07;58.28;101272.94;10382317;28;20955;-71
2021/10/08 10:11:52;;;;;;;11.95;8.32;;;;;;;13.33;58.35;101268.06;10381752;28;20085;-71
2021/10/08 10:16:54;;;;;;;13.15;8.52;;;;;;;13.50;57.79;101264.63;10381905;28;20054;-71
2021/10/08 10:21:56;;;;;;;13.75;8.20;;;;;;;13.39;58.36;101262.50;10382507;28;20073;-70
2021/10/08 10:26:58;;;;;;;13.52;8.68;;;;;;;13.54;57.64;101264.41;10381160;28;20047;-70
2021/10/08 10:32:01;;;;;;;12.75;9.10;;;;;;;13.69;57.54;101254.88;10390356;28;20053;-71
2021/10/08 10:37:04;;;;;;;13.95;8.68;;;;;;;13.88;56.80;101254.78;10391552;28;20139;-71
2021/10/08 10:42:13;;;;;;;12.18;8.68;;;;;;;14.20;56.48;101249.50;10391358;28;20457;-71
2021/10/08 10:47:29;;;;;;;10.40;8.40;;;;;;;14.40;55.60;101251.03;10387047;28;20705;-71
2021/10/08 10:52:31;;;;;;;11.57;8.75;;;;;;;14.16;56.36;101242.72;10390805;28;20045;-70
2021/10/08 10:57:33;;;;;;;10.25;7.63;;;;;;;14.29;56.33;101235.84;10389827;28;20152;-70
2021/10/08 11:02:36;;;;;;;10.95;7.05;;;;;;;14.36;56.49;101231.94;10390425;28;20075;-70
2021/10/08 11:08:12;;;;;;;12.48;7.78;;;;;;;14.53;56.70;101223.16;10390024;28;20071;-71
2021/10/08 11:13:27;;;;;;;9.93;6.85;;;;;;;14.77;55.72;101226.19;10388730;28;20057;-70
2021/10/08 11:18:50;;;;;;;12.85;7.30;;;;;;;14.91;55.01;101220.97;10391141;28;20053;-70
2021/10/08 11:23:52;;;;;;;13.30;7.18;;;;;;;15.25;55.64;101212.81;10389669;28;20412;-70
2021/10/08 11:28:57;;;;;;;10.52;6.18;;;;;;;15.53;54.65;101197.09;10386129;28;20793;-70
2021/10/08 11:33:58;;;;;;;9.82;6.38;;;;;;;15.74;53.91;101189.66;10388377;28;20515;-70
2021/10/08 11:39:15;;;;;;;11.38;6.35;;;;;;;16.00;52.96;101188.91;10389967;28;20471;-70
2021/10/08 11:54:33;;;;;;;7.90;4.28;;;;;;;16.53;50.18;101156.50;10389184;28;20060;-70
2021/10/08 11:59:37;;;;;;;8.48;4.63;;;;;;;16.96;49.04;101150.91;10384674;28;20228;-70
2021/10/08 12:04:59;;;;;;;9.20;5.18;;;;;;;17.37;47.14;101142.84;10388152;28;20045;-70
2021/10/08 12:10:12;;;;;;;8.38;5.40;;;;;;;17.36;47.66;101141.19;10389244;28;20473;-71
2021/10/08 12:15:22;;;;;;;12.55;5.80;;;;;;;17.36;48.05;101130.59;10387549;28;20543;-71
2021/10/08 12:20:25;;;;;;;;;;;;;;;17.23;47.42;101139.44;10388926;28;20045;-71
2021/10/08 12:25:27;;;;;;;9.55;6.80;;;;;;;17.46;48.30;101142.22;10388201;28;19931;-70
2021/10/08 12:30:28;;;;;;;11.98;6.28;;;;;;;17.85;47.44;101134.13;10388474;28;20096;-71
2021/10/08 12:35:30;;;;;;;9.73;6.15;;;;;;;18.21;46.82;101132.50;10401462;28;20452;-70
2021/10/08 12:40:41;;;;;;;11.57;6.60;;;;;;;18.07;45.12;101128.16;10387210;28;20049;-71
2021/10/08 12:45:45;;;;;;;19.58;7.53;;;;;;;17.78;47.42;101126.75;10386426;28;20053;-71
2021/10/08 12:50:46;;;;;;;9.95;6.80;;;;;;;17.82;47.21;101126.41;10386037;28;20168;-70
2021/10/08 12:55:49;;;;;;;8.13;6.60;;;;;;;17.75;47.44;101122.50;10385797;28;20045;-71
2021/10/08 13:01:00;;;;;;;12.10;6.60;;;;;;;17.85;47.21;101120.91;10383780;28;20136;-70
2021/10/08 13:06:17;;;;;;;8.93;6.30;;;;;;;17.45;48.06;101131.72;10380780;28;20986;-70
2021/10/08 13:11:19;;;;;;;13.27;6.80;;;;;;;17.18;48.19;101128.34;10385724;28;20136;-70
2021/10/08 13:16:30;;;;;;;11.13;6.60;;;;;;;16.97;48.66;101115.63;10385486;28;20085;-70
2021/10/08 13:21:32;;;;;;;7.88;6.22;;;;;;;17.12;48.28;101112.88;10386151;28;20413;-70
2021/10/08 13:26:34;;;;;;;9.07;6.55;;;;;;;17.12;48.45;101113.72;10384569;28;20059;-70
2021/10/08 13:31:36;;;;;;;11.50;7.28;;;;;;;17.07;49.14;101104.41;10385776;28;20056;-70
2021/10/08 13:36:38;;;;;;;11.88;6.68;;;;;;;17.10;48.84;101112.97;10384491;28;20049;-70
2021/10/08 13:41:39;;;;;;;9.50;6.82;;;;;;;17.26;48.34;101104.84;10385790;28;20099;-70
2021/10/08 13:46:41;;;;;;;9.90;6.72;;;;;;;17.45;48.21;101103.50;10384856;28;20053;-70
2021/10/08 13:51:43;;;;;;;9.85;7.60;;;;;;;17.51;48.26;101100.41;10383846;28;20090;-70
2021/10/08 13:56:46;;;;;;;10.77;8.35;;;;;;;17.47;47.35;101101.59;10384639;28;20052;-70
2021/10/08 14:01:59;;;;;;;11.38;8.43;;;;;;;17.47;48.35;101091.00;10381094;28;20547;-71
2021/10/08 14:12:06;;;;;;;12.30;8.90;;;;;;;17.20;48.78;101092.06;10383928;28;20067;-71
2021/10/08 14:17:09;;;;;;;12.30;8.85;;;;;;;17.25;48.46;101098.72;10378039;28;20046;-71
2021/10/08 14:22:10;;;;;;;14.65;8.95;;;;;;;17.20;48.84;101090.25;10383929;28;20055;-71
2021/10/08 14:27:12;;;;;;;12.30;8.75;;;;;;;17.04;48.23;101089.59;10383985;28;20053;-71
2021/10/08 14:32:14;;;;;;;12.68;9.13;;;;;;;17.07;48.66;101084.13;10366552;28;20060;-71
2021/10/08 14:37:15;;;;;;;11.88;9.38;;;;;;;17.04;48.56;101084.31;10383235;28;20051;-71
2021/10/08 14:42:18;;;;;;;15.57;9.55;;;;;;;16.68;49.29;101097.38;10381540;28;20056;-70
2021/10/08 14:47:20;;;;;;;14.10;9.63;;;;;;;16.61;49.53;101077.63;10376263;28;20520;-70
2021/10/08 14:52:23;;;;;;;16.73;11.82;;;;;;;16.61;49.38;101078.44;10381894;28;20053;-70
2021/10/08 15:02:45;;;;;;;13.07;9.68;;;;;;;16.24;50.52;101077.34;10380399;28;20053;-70
2021/10/08 15:07:47;;;;;;;12.70;9.75;;;;;;;16.24;51.26;101074.69;10380684;28;20444;-71
2021/10/08 15:12:49;;;;;;;17.15;9.98;;;;;;;16.07;51.36;101064.41;10382874;28;20081;-71
2021/10/08 15:17:51;;;;;;;14.95;10.02;;;;;;;16.08;51.31;101078.47;10387618;28;20136;-70
2021/10/08 15:22:53;;;;;;;12.90;10.10;;;;;;;15.77;51.67;101061.09;10391719;28;20088;-71
2021/10/08 15:27:55;;;;;;;13.02;10.10;;;;;;;15.62;52.32;101051.50;10383977;28;20146;-70
2021/10/08 15:32:57;;;;;;;14.27;10.98;;;;;;;15.67;52.21;101053.84;10388770;28;20051;-70
2021/10/08 15:38:00;;;;;;;16.95;10.70;;;;;;;15.59;52.12;101050.84;10370352;28;20168;-70
2021/10/08 15:43:02;;;;;;;14.10;10.85;;;;;;;15.64;51.82;101043.47;10385276;28;20394;-70
2021/10/08 15:48:04;;;;;;;13.32;10.55;;;;;;;15.53;52.36;101046.78;10383561;28;20564;-70
2021/10/08 15:53:05;;;;;;;15.20;11.30;;;;;;;15.54;52.11;101047.66;10403073;28;20733;-71
2021/10/08 15:58:07;;;;;;;14.52;10.65;;;;;;;15.45;52.63;101046.38;10403033;28;20071;-70
2021/10/08 16:03:09;;;;;;;16.58;11.05;;;;;;;15.36;52.44;101039.94;10380505;28;20490;-70
2021/10/08 16:08:11;;;;;;;12.95;10.07;;;;;;;15.06;53.04;101044.41;10384478;28;20820;-70
2021/10/08 16:13:12;;;;;;;13.68;10.68;;;;;;;14.96;53.46;101045.91;10386484;28;20425;-70
2021/10/08 16:18:16;;;;;;;14.00;10.90;;;;;;;14.87;53.32;101051.75;10387884;28;20045;-70
2021/10/08 16:23:20;;;;;;;16.45;11.70;;;;;;;14.80;53.99;101052.22;10384023;28;20376;-70
2021/10/08 16:28:21;;;;;;;14.05;11.43;;;;;;;14.77;54.28;101055.00;10383191;28;20061;-70
2021/10/08 16:33:23;;;;;;;16.05;10.80;;;;;;;14.65;54.81;101061.88;10385642;28;20337;-70
2021/10/08 16:38:25;;;;;;;16.15;11.65;;;;;;;14.45;55.30;101055.06;10385946;28;20391;-70
2021/10/08 16:43:30;;;;;;;16.25;11.65;;;;;;;14.29;55.92;101062.16;10386768;28;20548;-71
2021/10/08 16:48:31;;;;;;;14.85;12.13;;;;;;;14.17;55.90;101062.00;10385019;28;20216;-71
2021/10/08 16:53:33;;;;;;;16.80;11.82;;;;;;;13.98;56.38;101067.47;10380742;28;20042;-71
2021/10/08 16:58:35;;;;;;;15.48;12.00;;;;;;;13.90;56.77;101066.19;10374896;28;20053;-72
2021/10/08 17:03:36;;;;;;;16.65;12.82;;;;;;;13.77;57.42;101076.53;10378737;28;20041;-71
2021/10/08 17:08:40;;;;;;;18.05;13.02;;;;;;;13.61;57.47;101075.69;10382428;28;20053;-71
2021/10/08 17:13:41;;;;;;;15.65;12.13;;;;;;;13.42;57.77;101073.19;10380222;28;20553;-71
2021/10/08 17:18:43;;;;;;;16.52;13.25;;;;;;;13.37;58.10;101080.41;10382572;28;20049;-71
2021/10/08 17:23:54;;;;;;;19.55;14.13;;;;;;;13.21;58.63;101086.59;10382891;28;20413;-71
2021/10/08 17:33:57;;;;;;;18.10;14.05;;;;;;;12.77;59.49;101088.84;10398408;28;20317;-70
2021/10/08 17:39:01;;;;;;;18.95;15.00;;;;;;;12.74;60.10;101094.28;10383649;28;20049;-70
2021/10/08 17:44:03;;;;;;;19.10;14.82;;;;;;;12.73;60.15;101100.44;10384031;28;20049;-70
2021/10/08 17:49:06;;;;;;;18.27;14.43;;;;;;;12.66;60.38;101099.88;10383317;28;20045;-69
2021/10/08 17:54:07;;;;;;;20.83;15.35;;;;;;;12.55;60.55;101106.59;10383072;28;20042;-70
2021/10/08 17:59:09;;;;;;;25.65;15.68;;;;;;;12.49;61.08;101107.75;10381595;28;20045;-71
2021/10/08 18:04:14;;;;;;;21.00;15.48;;;;;;;12.24;61.52;101106.34;10383255;28;20053;-71
2021/10/08 18:09:16;;;;;;;15.77;13.32;;;;;;;12.12;62.53;101110.41;10386131;28;20053;-71
2021/10/08 18:14:17;;;;;;;18.23;14.43;;;;;;;12.09;62.74;101113.16;10382461;28;20049;-71
2021/10/08 18:19:19;;;;;;;19.10;14.93;;;;;;;12.10;62.53;101115.75;10384658;28;20095;-70
2021/10/08 18:24:21;;;;;;;18.67;14.48;;;;;;;12.00;62.75;101124.09;10373944;28;20045;-71
2021/10/08 18:29:33;;;;;;;19.30;15.23;;;;;;;12.12;62.75;101118.28;10383210;28;20296;-71
2021/10/08 18:34:35;;;;;;;16.58;14.23;;;;;;;12.12;62.53;101121.75;10399249;28;20637;-71
2021/10/08 18:39:37;;;;;;;26.50;17.27;;;;;;;12.11;62.57;101127.91;10384893;28;20049;-71
2021/10/08 18:44:39;;;;;;;20.90;16.05;;;;;;;11.94;62.72;101127.00;10383411;28;20569;-64
2021/10/08 18:49:41;;;;;;;19.38;14.82;;;;;;;11.66;63.44;101130.03;10383992;28;20060;-65
2021/10/08 18:54:42;;;;;;;18.75;16.58;;;;;;;11.54;63.56;101120.09;10392069;28;20413;-63
2021/10/08 18:59:44;;;;;;;23.23;17.23;;;;;;;11.34;63.77;101121.94;10405198;28;20585;-63
2021/10/08 19:04:46;;;;;;;25.85;18.92;;;;;;;11.07;65.16;101129.22;10391272;28;20076;-63
2021/10/08 19:09:47;;;;;;;25.88;21.50;;;;;;;10.95;65.79;101132.31;10391113;28;20055;-63
2021/10/08 19:14:56;;;;;;;30.67;21.55;;;;;;;10.95;65.75;101132.31;10390644;28;20049;-63
2021/10/08 19:20:07;;;;;;;28.30;21.05;;;;;;;10.79;66.11;101133.84;10391712;28;20041;-63
2021/10/08 19:25:31;;;;;;;28.73;21.25;;;;;;;10.72;66.41;101135.88;10388849;28;20524;-63
2021/10/08 19:30:33;;;;;;;24.77;19.52;;;;;;;10.77;66.05;101141.78;10391303;28;20057;-63
2021/10/08 19:35:35;;;;;;;23.90;18.73;;;;;;;10.79;65.79;101144.31;10389602;28;20049;-63
2021/10/08 19:40:37;;;;;;;24.60;20.02;;;;;;;10.74;65.15;101139.28;10389445;28;20060;-63
2021/10/08 19:45:50;;;;;;;28.45;21.75;;;;;;;10.45;65.97;101142.22;10388931;28;20045;-64
2021/10/08 19:50:52;;;;;;;32.05;21.63;;;;;;;10.23;66.88;101137.00;10388890;28;20060;-64
2021/10/08 19:55:54;;;;;;;30.48;21.33;;;;;;;10.41;66.88;101138.03;10388556;28;20076;-63
2021/10/08 20:00:56;;;;;;;26.98;19.75;;;;;;;10.50;66.64;101143.75;10386653;28;20049;-64
2021/10/08 20:16:21;;;;;;;25.33;19.57;;;;;;;10.30;65.97;101145.44;10389187;28;20081;-64
2021/10/08 20:21:24;;;;;;;29.23;21.20;;;;;;;10.31;66.15;101149.78;10388855;28;20395;-63
2021/10/08 20:26:28;;;;;;;28.77;20.90;;;;;;;10.24;66.36;101146.53;10387679;28;20056;-63
2021/10/08 20:31:29;;;;;;;26.55;20.85;;;;;;;10.26;66.49;101149.09;10387646;28;21013;-64
2021/10/08 20:36:31;;;;;;;29.67;22.30;;;;;;;10.24;66.28;101151.78;10386338;28;20057;-64
2021/10/08 20:41:33;;;;;;;28.92;22.45;;;;;;;10.13;66.25;101153.09;10387040;28;20088;-64
2021/10/08 20:46:37;;;;;;;32.67;24.85;;;;;;;10.13;66.40;101153.09;10387805;28;20100;-64
2021/10/08 20:51:39;;;;;;;30.60;23.33;;;;;;;10.06;66.57;101151.63;10385757;28;20208;-64
2021/10/08 20:56:40;;;;;;;30.23;23.95;;;;;;;10.07;66.16;101153.34;10387579;28;20049;-63
2021/10/08 21:01:42;;;;;;;50.53;33.97;;;;;;;9.89;66.49;101151.44;10386085;28;20053;-64
2021/10/08 21:06:45;;;;;;;38.00;28.92;;;;;;;9.90;66.71;101150.50;10386720;28;20132;-64
2021/10/08 21:11:47;;;;;;;41.15;29.25;;;;;;;9.97;66.36;101155.44;10385709;28;20432;-64
2021/10/08 21:16:49;;;;;;;36.05;26.83;;;;;;;9.88;66.53;101152.31;10384408;28;20088;-64
2021/10/08 21:21:50;;;;;;;31.70;24.23;;;;;;;9.86;66.42;101148.91;10384990;28;20498;-64
2021/10/08 21:26:52;;;;;;;40.13;28.55;;;;;;;9.87;66.43;101150.63;10384537;28;20083;-64
2021/10/08 21:31:54;;;;;;;33.08;25.65;;;;;;;9.82;66.53;101145.59;10385208;28;20498;-64
2021/10/08 21:37:21;;;;;;;38.05;27.15;;;;;;;9.81;66.32;101146.47;10385632;28;20050;-64
2021/10/08 21:47:43;;;;;;;34.93;25.13;;;;;;;9.72;66.27;101146.81;10385236;28;20202;-63
2021/10/08 21:52:45;;;;;;;51.35;34.50;;;;;;;9.65;66.06;101146.16;10385196;28;20472;-64
2021/10/08 21:57:47;;;;;;;56.28;36.65;;;;;;;9.46;66.73;101139.88;10384250;28;21291;-64
2021/10/08 22:02:49;;;;;;;44.35;33.70;;;;;;;9.41;66.92;101144.44;10384692;28;20619;-64
2021/10/08 22:07:51;;;;;;;48.53;31.33;;;;;;;9.37;66.94;101148.06;10383938;28;20063;-64
2021/10/08 22:12:53;;;;;;;42.53;31.52;;;;;;;9.40;66.90;101139.28;10383856;28;20672;-64
2021/10/08 22:17:58;;;;;;;74.68;42.92;;;;;;;9.27;66.87;101149.31;10384505;28;20053;-64
2021/10/08 22:23:06;;;;;;;51.40;35.75;;;;;;;9.23;67.06;101149.47;10384190;28;20053;-64
2021/10/08 22:28:24;;;;;;;49.50;34.92;;;;;;;9.15;67.21;101139.28;10383540;28;20053;-64
2021/10/08 22:38:30;;;;;;;65.72;42.17;;;;;;;9.11;67.24;101137.69;10383464;28;20712;-63
2021/10/08 22:43:32;;;;;;;48.40;35.33;;;;;;;9.09;67.01;101136.03;10383997;28;20066;-63
2021/10/08 22:48:33;;;;;;;54.38;37.40;;;;;;;9.02;67.08;101132.78;10382828;28;20053;-64
2021/10/08 22:53:35;;;;;;;74.93;43.60;;;;;;;8.96;66.76;101130.38;10383649;28;20060;-64
2021/10/08 22:58:37;;;;;;;53.00;37.65;;;;;;;8.93;67.26;101127.03;10383299;28;20544;-64
2021/10/08 23:03:39;;;;;;;61.00;39.40;;;;;;;8.84;67.17;101122.97;10382899;28;20045;-64
2021/10/08 23:08:56;;;;;;;60.42;40.60;;;;;;;8.82;67.44;101123.03;10383327;28;20054;-64
2021/10/08 23:14:07;;;;;;;82.03;48.20;;;;;;;8.82;67.26;101128.25;10383025;28;20171;-64
2021/10/08 23:19:09;;;;;;;66.43;41.60;;;;;;;8.77;67.35;101126.72;10382547;28;20055;-64
2021/10/08 23:24:12;;;;;;;58.55;38.95;;;;;;;8.81;67.34;101120.47;10382965;28;20176;-64
2021/10/08 23:29:16;;;;;;;58.92;38.90;;;;;;;8.83;67.14;101121.28;10383446;28;20075;-64
2021/10/08 23:34:18;;;;;;;57.80;39.35;;;;;;;8.79;66.99;101123.13;10382747;28;20049;-64
2021/10/08 23:39:19;;;;;;;73.85;42.95;;;;;;;8.66;66.92;101124.44;10386265;28;20493;-64